sensor_id;sensor_type;location;lat;lon;timestamp;P1;durP1;ratioP1;P2;durP2;ratioP2
67528;SDS011;54366;51.980;5.856;2022-11-11T00:04:59;7.17;;;4.90;;
67528;SDS011;54366;51.980;5.856;2022-11-11T00:07:44;6.75;;;4.75;;
67528;SDS011;54366;51.980;5.856;2022-11-11T00:10:29;8.20;;;4.95;;
67528;SDS011;54366;51.980;5.856;2022-11-11T00:13:13;6.43;;;5.15;;
67528;SDS011;54366;51.980;5.856;2022-11-11T00:16:08;6.53;;;4.90;;
67528;SDS011;54366;51.980;5.856;2022-11-11T00:18:53;7.25;;;5.30;;
67528;SDS011;54366;51.980;5.856;2022-11-11T00:21:57;7.25;;;5.20;;
67528;SDS011;54366;51.980;5.856;2022-11-11T00:25:00;6.60;;;4.90;;
67528;SDS011;54366;51.980;5.856;2022-11-11T00:27:51;8.00;;;5.20;;
67528;SDS011;54366;51.980;5.856;2022-11-11T00:33:20;8.23;;;5.50;;
67528;SDS011;54366;51.980;5.856;2022-11-11T00:36:06;7.90;;;5.68;;
67528;SDS011;54366;51.980;5.856;2022-11-11T00:38:51;7.88;;;5.82;;
67528;SDS011;54366;51.980;5.856;2022-11-11T00:41:38;5.93;;;4.97;;
67528;SDS011;54366;51.980;5.856;2022-11-11T00:44:23;7.72;;;5.65;;
67528;SDS011;54366;51.980;5.856;2022-11-11T00:47:08;11.02;;;6.43;;
67528;SDS011;54366;51.980;5.856;2022-11-11T00:50:14;8.15;;;6.38;;
67528;SDS011;54366;51.980;5.856;2022-11-11T00:53:20;10.55;;;7.18;;
67528;SDS011;54366;51.980;5.856;2022-11-11T00:56:06;10.75;;;7.40;;
67528;SDS011;54366;51.980;5.856;2022-11-11T00:58:51;9.98;;;7.28;;
67528;SDS011;54366;51.980;5.856;2022-11-11T01:01:36;10.40;;;7.78;;
67528;SDS011;54366;51.980;5.856;2022-11-11T01:04:21;8.65;;;7.68;;
67528;SDS011;54366;51.980;5.856;2022-11-11T01:07:06;10.18;;;7.03;;
67528;SDS011;54366;51.980;5.856;2022-11-11T01:12:35;8.87;;;7.97;;
67528;SDS011;54366;51.980;5.856;2022-11-11T01:18:05;12.27;;;9.17;;
67528;SDS011;54366;51.980;5.856;2022-11-11T01:20:57;11.15;;;8.85;;
67528;SDS011;54366;51.980;5.856;2022-11-11T01:23:46;10.82;;;8.65;;
67528;SDS011;54366;51.980;5.856;2022-11-11T01:26:32;11.70;;;9.23;;
67528;SDS011;54366;51.980;5.856;2022-11-11T01:29:17;12.65;;;8.80;;
67528;SDS011;54366;51.980;5.856;2022-11-11T01:32:02;11.32;;;9.35;;
67528;SDS011;54366;51.980;5.856;2022-11-11T01:34:47;13.60;;;10.38;;
67528;SDS011;54366;51.980;5.856;2022-11-11T01:37:32;13.13;;;9.48;;
67528;SDS011;54366;51.980;5.856;2022-11-11T01:40:18;10.50;;;8.80;;
67528;SDS011;54366;51.980;5.856;2022-11-11T01:45:55;12.85;;;11.15;;
67528;SDS011;54366;51.980;5.856;2022-11-11T01:48:45;9.93;;;8.73;;
67528;SDS011;54366;51.980;5.856;2022-11-11T01:51:53;12.45;;;10.70;;
67528;SDS011;54366;51.980;5.856;2022-11-11T01:55:12;13.05;;;11.05;;
67528;SDS011;54366;51.980;5.856;2022-11-11T01:58:06;12.47;;;10.77;;
67528;SDS011;54366;51.980;5.856;2022-11-11T02:00:56;12.15;;;10.95;;
67528;SDS011;54366;51.980;5.856;2022-11-11T02:03:43;12.60;;;10.88;;
67528;SDS011;54366;51.980;5.856;2022-11-11T02:06:51;15.10;;;11.25;;
67528;SDS011;54366;51.980;5.856;2022-11-11T02:09:39;9.90;;;8.90;;
67528;SDS011;54366;51.980;5.856;2022-11-11T02:12:26;11.68;;;10.50;;
67528;SDS011;54366;51.980;5.856;2022-11-11T02:15:29;12.00;;;10.70;;
67528;SDS011;54366;51.980;5.856;2022-11-11T02:18:14;12.05;;;10.75;;
67528;SDS011;54366;51.980;5.856;2022-11-11T02:20:59;12.70;;;10.38;;
67528;SDS011;54366;51.980;5.856;2022-11-11T02:24:18;12.05;;;10.75;;
67528;SDS011;54366;51.980;5.856;2022-11-11T02:26:59;13.55;;;11.18;;
67528;SDS011;54366;51.980;5.856;2022-11-11T02:29:46;11.50;;;10.30;;
67528;SDS011;54366;51.980;5.856;2022-11-11T02:32:33;14.88;;;11.98;;
67528;SDS011;54366;51.980;5.856;2022-11-11T02:35:19;13.60;;;11.65;;
67528;SDS011;54366;51.980;5.856;2022-11-11T02:38:05;17.73;;;13.65;;
67528;SDS011;54366;51.980;5.856;2022-11-11T02:40:55;13.85;;;12.13;;
67528;SDS011;54366;51.980;5.856;2022-11-11T02:43:58;12.68;;;11.35;;
67528;SDS011;54366;51.980;5.856;2022-11-11T02:46:43;15.63;;;12.50;;
67528;SDS011;54366;51.980;5.856;2022-11-11T02:49:28;13.63;;;11.70;;
67528;SDS011;54366;51.980;5.856;2022-11-11T02:52:13;14.23;;;12.23;;
67528;SDS011;54366;51.980;5.856;2022-11-11T02:54:57;13.05;;;11.18;;
67528;SDS011;54366;51.980;5.856;2022-11-11T02:57:43;12.00;;;10.50;;
67528;SDS011;54366;51.980;5.856;2022-11-11T03:00:27;16.30;;;12.90;;
67528;SDS011;54366;51.980;5.856;2022-11-11T03:03:12;13.38;;;11.98;;
67528;SDS011;54366;51.980;5.856;2022-11-11T03:05:57;15.27;;;12.85;;
67528;SDS011;54366;51.980;5.856;2022-11-11T03:08:41;13.63;;;11.75;;
67528;SDS011;54366;51.980;5.856;2022-11-11T03:11:26;17.63;;;13.40;;
67528;SDS011;54366;51.980;5.856;2022-11-11T03:14:11;14.90;;;13.30;;
67528;SDS011;54366;51.980;5.856;2022-11-11T03:16:56;15.93;;;11.70;;
67528;SDS011;54366;51.980;5.856;2022-11-11T03:20:00;13.15;;;11.75;;
67528;SDS011;54366;51.980;5.856;2022-11-11T03:23:04;16.23;;;12.45;;
67528;SDS011;54366;51.980;5.856;2022-11-11T03:25:54;13.40;;;11.15;;
67528;SDS011;54366;51.980;5.856;2022-11-11T03:28:39;14.70;;;11.63;;
67528;SDS011;54366;51.980;5.856;2022-11-11T03:31:23;18.20;;;13.27;;
67528;SDS011;54366;51.980;5.856;2022-11-11T03:37:02;14.95;;;11.73;;
67528;SDS011;54366;51.980;5.856;2022-11-11T03:40:11;13.27;;;10.93;;
67528;SDS011;54366;51.980;5.856;2022-11-11T03:42:56;13.45;;;11.70;;
67528;SDS011;54366;51.980;5.856;2022-11-11T03:48:27;17.25;;;11.88;;
67528;SDS011;54366;51.980;5.856;2022-11-11T03:51:12;11.98;;;10.25;;
67528;SDS011;54366;51.980;5.856;2022-11-11T03:53:57;15.07;;;12.30;;
67528;SDS011;54366;51.980;5.856;2022-11-11T03:59:26;16.38;;;11.63;;
67528;SDS011;54366;51.980;5.856;2022-11-11T04:02:12;11.77;;;10.05;;
67528;SDS011;54366;51.980;5.856;2022-11-11T04:05:16;11.57;;;10.38;;
67528;SDS011;54366;51.980;5.856;2022-11-11T04:08:20;11.88;;;10.32;;
67528;SDS011;54366;51.980;5.856;2022-11-11T04:11:26;12.60;;;11.27;;
67528;SDS011;54366;51.980;5.856;2022-11-11T04:14:13;11.02;;;9.80;;
67528;SDS011;54366;51.980;5.856;2022-11-11T04:17:17;13.68;;;10.77;;
67528;SDS011;54366;51.980;5.856;2022-11-11T04:20:02;12.45;;;10.52;;
67528;SDS011;54366;51.980;5.856;2022-11-11T04:23:05;11.77;;;10.07;;
67528;SDS011;54366;51.980;5.856;2022-11-11T04:28:36;12.50;;;10.43;;
67528;SDS011;54366;51.980;5.856;2022-11-11T04:31:40;13.20;;;10.05;;
67528;SDS011;54366;51.980;5.856;2022-11-11T04:34:45;13.60;;;10.32;;
67528;SDS011;54366;51.980;5.856;2022-11-11T04:37:35;11.52;;;9.05;;
67528;SDS011;54366;51.980;5.856;2022-11-11T04:40:29;11.63;;;8.98;;
67528;SDS011;54366;51.980;5.856;2022-11-11T04:43:32;13.10;;;9.52;;
67528;SDS011;54366;51.980;5.856;2022-11-11T04:46:37;13.23;;;10.32;;
67528;SDS011;54366;51.980;5.856;2022-11-11T04:52:08;11.30;;;9.07;;
67528;SDS011;54366;51.980;5.856;2022-11-11T04:55:12;11.82;;;10.05;;
67528;SDS011;54366;51.980;5.856;2022-11-11T04:58:17;11.45;;;9.80;;
67528;SDS011;54366;51.980;5.856;2022-11-11T05:01:03;12.98;;;10.23;;
67528;SDS011;54366;51.980;5.856;2022-11-11T05:03:47;9.93;;;8.88;;
67528;SDS011;54366;51.980;5.856;2022-11-11T05:06:32;11.02;;;8.73;;
67528;SDS011;54366;51.980;5.856;2022-11-11T05:09:35;10.73;;;9.20;;
67528;SDS011;54366;51.980;5.856;2022-11-11T05:12:20;9.60;;;8.60;;
67528;SDS011;54366;51.980;5.856;2022-11-11T05:15:05;11.30;;;9.55;;
67528;SDS011;54366;51.980;5.856;2022-11-11T05:18:09;11.35;;;8.80;;
67528;SDS011;54366;51.980;5.856;2022-11-11T05:21:13;10.93;;;8.75;;
67528;SDS011;54366;51.980;5.856;2022-11-11T05:24:04;9.40;;;8.45;;
67528;SDS011;54366;51.980;5.856;2022-11-11T05:27:12;11.63;;;9.38;;
67528;SDS011;54366;51.980;5.856;2022-11-11T05:29:57;9.90;;;8.90;;
67528;SDS011;54366;51.980;5.856;2022-11-11T05:32:42;10.45;;;8.88;;
67528;SDS011;54366;51.980;5.856;2022-11-11T05:35:27;14.65;;;10.30;;
67528;SDS011;54366;51.980;5.856;2022-11-11T05:41:06;10.45;;;9.00;;
67528;SDS011;54366;51.980;5.856;2022-11-11T05:43:51;10.52;;;9.00;;
67528;SDS011;54366;51.980;5.856;2022-11-11T05:46:36;10.68;;;8.60;;
67528;SDS011;54366;51.980;5.856;2022-11-11T05:49:21;13.10;;;9.07;;
67528;SDS011;54366;51.980;5.856;2022-11-11T05:52:08;10.40;;;8.50;;
67528;SDS011;54366;51.980;5.856;2022-11-11T05:54:54;10.38;;;9.20;;
67528;SDS011;54366;51.980;5.856;2022-11-11T05:57:39;11.10;;;9.38;;
67528;SDS011;54366;51.980;5.856;2022-11-11T06:00:23;10.13;;;8.90;;
67528;SDS011;54366;51.980;5.856;2022-11-11T06:03:09;10.75;;;9.52;;
67528;SDS011;54366;51.980;5.856;2022-11-11T06:05:53;9.35;;;8.02;;
67528;SDS011;54366;51.980;5.856;2022-11-11T06:08:38;13.25;;;9.60;;
67528;SDS011;54366;51.980;5.856;2022-11-11T06:11:23;12.23;;;9.07;;
67528;SDS011;54366;51.980;5.856;2022-11-11T06:14:08;11.40;;;9.00;;
67528;SDS011;54366;51.980;5.856;2022-11-11T06:16:53;10.10;;;8.75;;
67528;SDS011;54366;51.980;5.856;2022-11-11T06:19:37;10.75;;;9.00;;
67528;SDS011;54366;51.980;5.856;2022-11-11T06:25:30;11.75;;;8.82;;
67528;SDS011;54366;51.980;5.856;2022-11-11T06:28:34;9.02;;;8.07;;
67528;SDS011;54366;51.980;5.856;2022-11-11T06:31:26;10.10;;;8.18;;
67528;SDS011;54366;51.980;5.856;2022-11-11T06:34:11;11.48;;;8.20;;
67528;SDS011;54366;51.980;5.856;2022-11-11T06:36:55;12.30;;;9.15;;
67528;SDS011;54366;51.980;5.856;2022-11-11T06:39:40;12.60;;;9.60;;
67528;SDS011;54366;51.980;5.856;2022-11-11T06:45:09;13.88;;;10.02;;
67528;SDS011;54366;51.980;5.856;2022-11-11T06:47:54;12.80;;;10.25;;
67528;SDS011;54366;51.980;5.856;2022-11-11T06:50:40;12.07;;;9.82;;
67528;SDS011;54366;51.980;5.856;2022-11-11T06:53:24;11.63;;;10.27;;
67528;SDS011;54366;51.980;5.856;2022-11-11T06:56:12;10.73;;;9.40;;
67528;SDS011;54366;51.980;5.856;2022-11-11T06:58:57;10.73;;;9.60;;
67528;SDS011;54366;51.980;5.856;2022-11-11T07:01:42;11.70;;;10.10;;
67528;SDS011;54366;51.980;5.856;2022-11-11T07:04:26;11.23;;;9.65;;
67528;SDS011;54366;51.980;5.856;2022-11-11T07:07:11;9.80;;;8.80;;
67528;SDS011;54366;51.980;5.856;2022-11-11T07:09:56;10.00;;;8.98;;
67528;SDS011;54366;51.980;5.856;2022-11-11T07:12:41;10.13;;;9.07;;
67528;SDS011;54366;51.980;5.856;2022-11-11T07:15:26;11.25;;;10.05;;
67528;SDS011;54366;51.980;5.856;2022-11-11T07:20:55;12.95;;;10.77;;
67528;SDS011;54366;51.980;5.856;2022-11-11T07:23:40;11.82;;;10.63;;
67528;SDS011;54366;51.980;5.856;2022-11-11T07:26:24;13.43;;;11.35;;
67528;SDS011;54366;51.980;5.856;2022-11-11T07:29:09;13.80;;;11.75;;
67528;SDS011;54366;51.980;5.856;2022-11-11T07:31:55;14.95;;;12.65;;
67528;SDS011;54366;51.980;5.856;2022-11-11T07:34:39;14.52;;;12.90;;
67528;SDS011;54366;51.980;5.856;2022-11-11T07:37:24;13.80;;;12.40;;
67528;SDS011;54366;51.980;5.856;2022-11-11T07:40:09;16.40;;;13.70;;
67528;SDS011;54366;51.980;5.856;2022-11-11T07:42:55;15.20;;;13.60;;
67528;SDS011;54366;51.980;5.856;2022-11-11T07:45:40;17.80;;;15.15;;
67528;SDS011;54366;51.980;5.856;2022-11-11T07:48:25;15.88;;;14.13;;
67528;SDS011;54366;51.980;5.856;2022-11-11T07:53:55;20.55;;;15.55;;
67528;SDS011;54366;51.980;5.856;2022-11-11T07:56:40;19.23;;;16.48;;
67528;SDS011;54366;51.980;5.856;2022-11-11T07:59:25;18.13;;;16.00;;
67528;SDS011;54366;51.980;5.856;2022-11-11T08:02:10;20.45;;;16.67;;
67528;SDS011;54366;51.980;5.856;2022-11-11T08:04:55;19.60;;;16.08;;
67528;SDS011;54366;51.980;5.856;2022-11-11T08:07:40;19.77;;;16.23;;
67528;SDS011;54366;51.980;5.856;2022-11-11T08:10:25;18.95;;;15.38;;
67528;SDS011;54366;51.980;5.856;2022-11-11T08:16:14;16.60;;;14.18;;
67528;SDS011;54366;51.980;5.856;2022-11-11T08:18:59;18.42;;;15.70;;
67528;SDS011;54366;51.980;5.856;2022-11-11T08:21:45;17.40;;;14.90;;
67528;SDS011;54366;51.980;5.856;2022-11-11T08:24:29;16.63;;;14.85;;
67528;SDS011;54366;51.980;5.856;2022-11-11T08:29:58;17.30;;;15.40;;
67528;SDS011;54366;51.980;5.856;2022-11-11T08:32:43;17.17;;;15.30;;
67528;SDS011;54366;51.980;5.856;2022-11-11T08:35:28;18.40;;;15.30;;
67528;SDS011;54366;51.980;5.856;2022-11-11T08:38:13;16.30;;;14.57;;
67528;SDS011;54366;51.980;5.856;2022-11-11T08:40:59;16.52;;;13.85;;
67528;SDS011;54366;51.980;5.856;2022-11-11T08:43:44;15.10;;;13.50;;
67528;SDS011;54366;51.980;5.856;2022-11-11T08:46:29;15.52;;;13.55;;
67528;SDS011;54366;51.980;5.856;2022-11-11T08:49:14;15.13;;;12.95;;
67528;SDS011;54366;51.980;5.856;2022-11-11T08:51:59;14.10;;;11.70;;
67528;SDS011;54366;51.980;5.856;2022-11-11T08:54:43;11.68;;;10.40;;
67528;SDS011;54366;51.980;5.856;2022-11-11T08:57:28;13.30;;;11.65;;
67528;SDS011;54366;51.980;5.856;2022-11-11T09:00:13;12.10;;;10.90;;
67528;SDS011;54366;51.980;5.856;2022-11-11T09:03:02;13.38;;;10.77;;
67528;SDS011;54366;51.980;5.856;2022-11-11T09:05:49;11.65;;;10.35;;
67528;SDS011;54366;51.980;5.856;2022-11-11T09:08:34;12.95;;;10.75;;
67528;SDS011;54366;51.980;5.856;2022-11-11T09:11:19;12.32;;;10.25;;
67528;SDS011;54366;51.980;5.856;2022-11-11T09:14:04;10.88;;;9.55;;
67528;SDS011;54366;51.980;5.856;2022-11-11T09:19:33;13.68;;;11.63;;
67528;SDS011;54366;51.980;5.856;2022-11-11T09:22:17;13.73;;;10.43;;
67528;SDS011;54366;51.980;5.856;2022-11-11T09:25:02;12.02;;;9.88;;
67528;SDS011;54366;51.980;5.856;2022-11-11T09:27:57;11.48;;;10.00;;
67528;SDS011;54366;51.980;5.856;2022-11-11T09:30:43;11.57;;;9.93;;
67528;SDS011;54366;51.980;5.856;2022-11-11T09:33:29;14.40;;;11.43;;
67528;SDS011;54366;51.980;5.856;2022-11-11T09:36:14;12.82;;;10.65;;
67528;SDS011;54366;51.980;5.856;2022-11-11T09:38:58;12.77;;;9.82;;
67528;SDS011;54366;51.980;5.856;2022-11-11T09:44:48;14.52;;;10.82;;
67528;SDS011;54366;51.980;5.856;2022-11-11T09:48:07;12.23;;;10.15;;
67528;SDS011;54366;51.980;5.856;2022-11-11T09:51:14;13.35;;;10.20;;
67528;SDS011;54366;51.980;5.856;2022-11-11T09:54:05;9.68;;;8.68;;
67528;SDS011;54366;51.980;5.856;2022-11-11T09:56:55;13.30;;;9.95;;
67528;SDS011;54366;51.980;5.856;2022-11-11T09:59:45;11.70;;;9.75;;
67528;SDS011;54366;51.980;5.856;2022-11-11T10:02:34;11.65;;;9.13;;
67528;SDS011;54366;51.980;5.856;2022-11-11T10:09:07;12.68;;;9.50;;
67528;SDS011;54366;51.980;5.856;2022-11-11T10:12:36;9.00;;;7.90;;
67528;SDS011;54366;51.980;5.856;2022-11-11T10:15:29;9.18;;;8.20;;
67528;SDS011;54366;51.980;5.856;2022-11-11T10:21:18;11.68;;;9.60;;
67528;SDS011;54366;51.980;5.856;2022-11-11T10:24:10;10.10;;;9.10;;
67528;SDS011;54366;51.980;5.856;2022-11-11T10:27:00;9.73;;;8.52;;
67528;SDS011;54366;51.980;5.856;2022-11-11T10:29:50;10.05;;;8.52;;
67528;SDS011;54366;51.980;5.856;2022-11-11T10:32:35;10.95;;;8.48;;
67528;SDS011;54366;51.980;5.856;2022-11-11T10:35:22;10.32;;;8.73;;
67528;SDS011;54366;51.980;5.856;2022-11-11T10:40:53;8.20;;;7.28;;
67528;SDS011;54366;51.980;5.856;2022-11-11T10:43:43;7.90;;;6.75;;
67528;SDS011;54366;51.980;5.856;2022-11-11T10:46:37;8.55;;;7.22;;
67528;SDS011;54366;51.980;5.856;2022-11-11T10:49:34;8.70;;;7.13;;
67528;SDS011;54366;51.980;5.856;2022-11-11T10:52:26;7.63;;;6.57;;
67528;SDS011;54366;51.980;5.856;2022-11-11T10:55:29;8.90;;;7.43;;
67528;SDS011;54366;51.980;5.856;2022-11-11T10:58:29;7.40;;;6.63;;
67528;SDS011;54366;51.980;5.856;2022-11-11T11:01:37;8.10;;;7.05;;
67528;SDS011;54366;51.980;5.856;2022-11-11T11:07:25;8.07;;;6.10;;
67528;SDS011;54366;51.980;5.856;2022-11-11T11:10:18;6.50;;;5.63;;
67528;SDS011;54366;51.980;5.856;2022-11-11T11:13:17;6.50;;;5.80;;
67528;SDS011;54366;51.980;5.856;2022-11-11T11:16:12;5.85;;;5.25;;
67528;SDS011;54366;51.980;5.856;2022-11-11T11:22:02;8.00;;;5.82;;
67528;SDS011;54366;51.980;5.856;2022-11-11T11:24:48;8.73;;;6.30;;
67528;SDS011;54366;51.980;5.856;2022-11-11T11:30:19;7.50;;;5.88;;
67528;SDS011;54366;51.980;5.856;2022-11-11T11:33:06;6.00;;;5.20;;
67528;SDS011;54366;51.980;5.856;2022-11-11T11:35:51;7.35;;;5.70;;
67528;SDS011;54366;51.980;5.856;2022-11-11T11:38:41;7.57;;;6.40;;
67528;SDS011;54366;51.980;5.856;2022-11-11T11:44:35;6.47;;;5.13;;
67528;SDS011;54366;51.980;5.856;2022-11-11T11:47:33;6.57;;;5.55;;
67528;SDS011;54366;51.980;5.856;2022-11-11T11:50:55;6.88;;;5.43;;
67528;SDS011;54366;51.980;5.856;2022-11-11T11:54:12;7.13;;;6.32;;
67528;SDS011;54366;51.980;5.856;2022-11-11T12:04:07;6.78;;;5.20;;
67528;SDS011;54366;51.980;5.856;2022-11-11T12:10:26;5.70;;;5.10;;
67528;SDS011;54366;51.980;5.856;2022-11-11T12:22:32;5.68;;;5.07;;
67528;SDS011;54366;51.980;5.856;2022-11-11T12:25:30;5.65;;;4.70;;
67528;SDS011;54366;51.980;5.856;2022-11-11T12:37:07;5.05;;;4.20;;
67528;SDS011;54366;51.980;5.856;2022-11-11T12:40:03;6.13;;;5.10;;
67528;SDS011;54366;51.980;5.856;2022-11-11T13:04:20;4.97;;;3.78;;
67528;SDS011;54366;51.980;5.856;2022-11-11T13:10:01;7.13;;;4.65;;
67528;SDS011;54366;51.980;5.856;2022-11-11T13:16:09;3.63;;;3.33;;
67528;SDS011;54366;51.980;5.856;2022-11-11T13:18:58;4.88;;;3.35;;
67528;SDS011;54366;51.980;5.856;2022-11-11T13:21:52;5.22;;;3.60;;
67528;SDS011;54366;51.980;5.856;2022-11-11T13:24:40;4.88;;;3.80;;
67528;SDS011;54366;51.980;5.856;2022-11-11T13:33:25;5.10;;;3.30;;
67528;SDS011;54366;51.980;5.856;2022-11-11T13:39:06;6.07;;;3.80;;
67528;SDS011;54366;51.980;5.856;2022-11-11T13:42:05;3.20;;;2.90;;
67528;SDS011;54366;51.980;5.856;2022-11-11T13:44:54;4.88;;;3.17;;
67528;SDS011;54366;51.980;5.856;2022-11-11T13:47:46;3.60;;;3.10;;
67528;SDS011;54366;51.980;5.856;2022-11-11T13:53:30;2.97;;;2.20;;
67528;SDS011;54366;51.980;5.856;2022-11-11T13:56:21;2.10;;;2.00;;
67528;SDS011;54366;51.980;5.856;2022-11-11T14:02:17;3.35;;;2.15;;
67528;SDS011;54366;51.980;5.856;2022-11-11T14:07:59;4.03;;;2.08;;
67528;SDS011;54366;51.980;5.856;2022-11-11T14:13:37;2.47;;;1.80;;
67528;SDS011;54366;51.980;5.856;2022-11-11T14:25:19;2.13;;;1.40;;
67528;SDS011;54366;51.980;5.856;2022-11-11T14:28:25;1.98;;;1.50;;
67528;SDS011;54366;51.980;5.856;2022-11-11T14:37:40;1.80;;;1.40;;
67528;SDS011;54366;51.980;5.856;2022-11-11T14:40:45;3.58;;;1.60;;
67528;SDS011;54366;51.980;5.856;2022-11-11T14:46:15;2.63;;;1.25;;
67528;SDS011;54366;51.980;5.856;2022-11-11T14:49:00;1.38;;;1.08;;
67528;SDS011;54366;51.980;5.856;2022-11-11T14:51:47;2.40;;;1.20;;
67528;SDS011;54366;51.980;5.856;2022-11-11T14:54:35;1.85;;;1.45;;
67528;SDS011;54366;51.980;5.856;2022-11-11T14:57:49;2.70;;;1.27;;
67528;SDS011;54366;51.980;5.856;2022-11-11T15:03:32;1.65;;;1.17;;
67528;SDS011;54366;51.980;5.856;2022-11-11T15:06:27;1.88;;;1.27;;
67528;SDS011;54366;51.980;5.856;2022-11-11T15:37:13;2.22;;;1.55;;
67528;SDS011;54366;51.980;5.856;2022-11-11T15:39:59;2.65;;;1.40;;
67528;SDS011;54366;51.980;5.856;2022-11-11T15:42:45;3.35;;;1.40;;
67528;SDS011;54366;51.980;5.856;2022-11-11T15:45:33;2.03;;;1.33;;
67528;SDS011;54366;51.980;5.856;2022-11-11T15:48:21;2.22;;;1.63;;
67528;SDS011;54366;51.980;5.856;2022-11-11T15:51:17;2.33;;;1.23;;
67528;SDS011;54366;51.980;5.856;2022-11-11T15:54:22;1.52;;;1.20;;
67528;SDS011;54366;51.980;5.856;2022-11-11T15:57:14;2.60;;;1.40;;
67528;SDS011;54366;51.980;5.856;2022-11-11T16:06:23;2.38;;;1.75;;
67528;SDS011;54366;51.980;5.856;2022-11-11T16:09:08;4.05;;;1.52;;
67528;SDS011;54366;51.980;5.856;2022-11-11T16:11:56;2.65;;;2.20;;
67528;SDS011;54366;51.980;5.856;2022-11-11T16:14:42;3.75;;;1.90;;
67528;SDS011;54366;51.980;5.856;2022-11-11T16:17:32;2.65;;;1.80;;
67528;SDS011;54366;51.980;5.856;2022-11-11T16:20:24;3.08;;;1.80;;
67528;SDS011;54366;51.980;5.856;2022-11-11T16:23:25;2.22;;;1.77;;
67528;SDS011;54366;51.980;5.856;2022-11-11T16:26:11;2.30;;;1.58;;
67528;SDS011;54366;51.980;5.856;2022-11-11T16:28:57;2.00;;;1.58;;
67528;SDS011;54366;51.980;5.856;2022-11-11T16:31:43;2.95;;;1.73;;
67528;SDS011;54366;51.980;5.856;2022-11-11T16:37:14;3.50;;;1.95;;
67528;SDS011;54366;51.980;5.856;2022-11-11T16:46:05;3.72;;;1.90;;
67528;SDS011;54366;51.980;5.856;2022-11-11T16:48:52;1.90;;;1.80;;
67528;SDS011;54366;51.980;5.856;2022-11-11T16:51:41;3.05;;;1.77;;
67528;SDS011;54366;51.980;5.856;2022-11-11T16:54:31;2.80;;;1.75;;
67528;SDS011;54366;51.980;5.856;2022-11-11T16:57:22;2.78;;;2.25;;
67528;SDS011;54366;51.980;5.856;2022-11-11T17:00:11;3.53;;;2.00;;
67528;SDS011;54366;51.980;5.856;2022-11-11T17:03:06;4.38;;;3.85;;
67528;SDS011;54366;51.980;5.856;2022-11-11T17:05:58;3.40;;;3.10;;
67528;SDS011;54366;51.980;5.856;2022-11-11T17:08:53;4.07;;;3.53;;
67528;SDS011;54366;51.980;5.856;2022-11-11T17:14:24;4.43;;;3.40;;
67528;SDS011;54366;51.980;5.856;2022-11-11T17:17:10;3.78;;;3.03;;
67528;SDS011;54366;51.980;5.856;2022-11-11T17:19:56;4.38;;;3.20;;
67528;SDS011;54366;51.980;5.856;2022-11-11T17:22:51;2.70;;;2.30;;
67528;SDS011;54366;51.980;5.856;2022-11-11T17:25:37;4.32;;;2.80;;
67528;SDS011;54366;51.980;5.856;2022-11-11T17:28:23;4.15;;;3.30;;
67528;SDS011;54366;51.980;5.856;2022-11-11T17:31:08;3.65;;;3.05;;
67528;SDS011;54366;51.980;5.856;2022-11-11T17:33:54;7.40;;;5.20;;
67528;SDS011;54366;51.980;5.856;2022-11-11T17:36:39;7.03;;;6.07;;
67528;SDS011;54366;51.980;5.856;2022-11-11T17:39:24;7.10;;;6.00;;
67528;SDS011;54366;51.980;5.856;2022-11-11T17:42:10;5.75;;;5.18;;
67528;SDS011;54366;51.980;5.856;2022-11-11T17:44:55;4.97;;;3.90;;
67528;SDS011;54366;51.980;5.856;2022-11-11T17:47:40;5.45;;;4.85;;
67528;SDS011;54366;51.980;5.856;2022-11-11T17:50:24;6.97;;;6.28;;
67528;SDS011;54366;51.980;5.856;2022-11-11T17:53:09;6.53;;;5.50;;
67528;SDS011;54366;51.980;5.856;2022-11-11T17:55:58;4.40;;;4.00;;
67528;SDS011;54366;51.980;5.856;2022-11-11T17:58:44;4.40;;;4.00;;
67528;SDS011;54366;51.980;5.856;2022-11-11T18:01:29;3.85;;;3.53;;
67528;SDS011;54366;51.980;5.856;2022-11-11T18:04:14;3.72;;;3.42;;
67528;SDS011;54366;51.980;5.856;2022-11-11T18:06:59;3.78;;;3.47;;
67528;SDS011;54366;51.980;5.856;2022-11-11T18:09:44;3.90;;;3.50;;
67528;SDS011;54366;51.980;5.856;2022-11-11T18:12:29;3.17;;;2.88;;
67528;SDS011;54366;51.980;5.856;2022-11-11T18:15:14;3.22;;;2.42;;
67528;SDS011;54366;51.980;5.856;2022-11-11T18:17:59;3.00;;;2.70;;
67528;SDS011;54366;51.980;5.856;2022-11-11T18:20:44;4.22;;;2.90;;
67528;SDS011;54366;51.980;5.856;2022-11-11T18:23:30;3.53;;;3.13;;
67528;SDS011;54366;51.980;5.856;2022-11-11T18:26:16;3.30;;;3.00;;
67528;SDS011;54366;51.980;5.856;2022-11-11T18:29:00;2.30;;;2.10;;
67528;SDS011;54366;51.980;5.856;2022-11-11T18:31:47;3.60;;;2.42;;
67528;SDS011;54366;51.980;5.856;2022-11-11T18:34:31;3.08;;;2.80;;
67528;SDS011;54366;51.980;5.856;2022-11-11T18:37:16;2.92;;;2.60;;
67528;SDS011;54366;51.980;5.856;2022-11-11T18:40:01;3.55;;;2.55;;
67528;SDS011;54366;51.980;5.856;2022-11-11T18:42:46;3.28;;;2.80;;
67528;SDS011;54366;51.980;5.856;2022-11-11T18:45:30;3.03;;;2.70;;
67528;SDS011;54366;51.980;5.856;2022-11-11T18:48:18;3.10;;;2.80;;
67528;SDS011;54366;51.980;5.856;2022-11-11T18:51:02;2.75;;;2.42;;
67528;SDS011;54366;51.980;5.856;2022-11-11T18:53:48;3.03;;;2.72;;
67528;SDS011;54366;51.980;5.856;2022-11-11T18:56:34;5.80;;;3.15;;
67528;SDS011;54366;51.980;5.856;2022-11-11T18:59:20;6.18;;;4.95;;
67528;SDS011;54366;51.980;5.856;2022-11-11T19:02:04;8.10;;;5.80;;
67528;SDS011;54366;51.980;5.856;2022-11-11T19:04:50;9.05;;;6.30;;
67528;SDS011;54366;51.980;5.856;2022-11-11T19:10:19;7.97;;;5.30;;
67528;SDS011;54366;51.980;5.856;2022-11-11T19:13:04;5.88;;;4.43;;
67528;SDS011;54366;51.980;5.856;2022-11-11T19:15:50;5.18;;;4.40;;
67528;SDS011;54366;51.980;5.856;2022-11-11T19:18:36;4.97;;;3.88;;
67528;SDS011;54366;51.980;5.856;2022-11-11T19:21:21;3.65;;;3.13;;
67528;SDS011;54366;51.980;5.856;2022-11-11T19:24:10;4.03;;;3.60;;
67528;SDS011;54366;51.980;5.856;2022-11-11T19:26:55;4.20;;;3.70;;
67528;SDS011;54366;51.980;5.856;2022-11-11T19:29:40;3.90;;;3.40;;
67528;SDS011;54366;51.980;5.856;2022-11-11T19:32:25;4.00;;;3.40;;
67528;SDS011;54366;51.980;5.856;2022-11-11T19:37:55;3.53;;;3.22;;
67528;SDS011;54366;51.980;5.856;2022-11-11T19:40:39;3.90;;;3.50;;
67528;SDS011;54366;51.980;5.856;2022-11-11T19:43:24;5.22;;;4.20;;
67528;SDS011;54366;51.980;5.856;2022-11-11T19:51:39;4.65;;;3.95;;
67528;SDS011;54366;51.980;5.856;2022-11-11T19:54:24;5.20;;;4.00;;
67528;SDS011;54366;51.980;5.856;2022-11-11T19:59:53;4.97;;;3.97;;
67528;SDS011;54366;51.980;5.856;2022-11-11T20:02:37;5.78;;;4.45;;
67528;SDS011;54366;51.980;5.856;2022-11-11T20:08:07;3.97;;;3.43;;
67528;SDS011;54366;51.980;5.856;2022-11-11T20:10:52;5.53;;;3.40;;
67528;SDS011;54366;51.980;5.856;2022-11-11T20:13:36;5.13;;;3.88;;
67528;SDS011;54366;51.980;5.856;2022-11-11T20:19:06;4.32;;;3.50;;
67528;SDS011;54366;51.980;5.856;2022-11-11T20:21:52;5.47;;;4.45;;
67528;SDS011;54366;51.980;5.856;2022-11-11T20:24:36;4.55;;;3.95;;
67528;SDS011;54366;51.980;5.856;2022-11-11T20:27:22;4.15;;;3.75;;
67528;SDS011;54366;51.980;5.856;2022-11-11T20:30:07;5.95;;;4.75;;
67528;SDS011;54366;51.980;5.856;2022-11-11T20:32:52;5.70;;;4.80;;
67528;SDS011;54366;51.980;5.856;2022-11-11T20:35:37;4.85;;;4.38;;
67528;SDS011;54366;51.980;5.856;2022-11-11T20:38:21;6.53;;;4.93;;
67528;SDS011;54366;51.980;5.856;2022-11-11T20:43:53;6.25;;;4.95;;
67528;SDS011;54366;51.980;5.856;2022-11-11T20:46:38;4.97;;;4.45;;
67528;SDS011;54366;51.980;5.856;2022-11-11T20:49:22;5.97;;;4.70;;